Time;durP1;ratioP1;P1;durP2;ratioP2;P2;SDS_P1;SDS_P2;PMS_P1;PMS_P2;Temp;Humidity;BMP_temperature;BMP_pressure;BME280_temperature;BME280_humidity;BME280_pressure;Samples;Min_cycle;Max_cycle;Signal;HPM_P1;HPM_P2
2022/05/12 00:00:28;;;;;;;4.68;4.10;;;20.00;99.90;;;-141.84;46.88;19263.09;5114028;28;20322;-63
2022/05/12 00:02:56;;;;;;;5.35;4.25;;;19.90;99.90;;;-141.84;47.23;19232.63;5114378;28;20315;-63
2022/05/12 00:05:25;;;;;;;4.63;4.32;;;19.80;99.90;;;-141.84;46.96;19250.91;5113359;28;20638;-62
2022/05/12 00:07:53;;;;;;;7.63;4.13;;;19.80;99.90;;;-141.84;46.74;19257.00;5114011;28;20342;-63
2022/05/12 00:10:25;;;;;;;4.07;3.78;;;19.80;99.90;;;-141.84;47.50;19220.44;5114454;28;20223;-63
2022/05/12 00:12:54;;;;;;;4.22;3.90;;;19.70;99.90;;;-141.84;47.62;19218.41;5114414;28;20545;-64
2022/05/12 00:15:27;;;;;;;5.80;4.60;;;19.70;99.90;;;-141.84;47.08;19222.47;5113947;28;20617;-62
2022/05/12 00:17:56;;;;;;;5.72;4.20;;;19.60;99.90;;;-141.84;46.75;19257.00;5113888;28;20249;-62
2022/05/12 00:20:26;;;;;;;4.85;4.45;;;19.70;99.90;;;-141.84;46.93;19259.03;5114042;28;20223;-63
2022/05/12 00:23:09;;;;;;;4.80;4.30;;;19.80;99.90;;;-141.84;46.22;19289.53;5113564;28;20226;-63
2022/05/12 00:25:37;;;;;;;4.63;4.30;;;19.90;99.90;;;-141.84;46.26;19283.44;5113487;28;20223;-63
2022/05/12 00:28:06;;;;;;;5.10;4.32;;;19.90;99.90;;;-141.84;46.94;19212.31;5113870;28;20626;-63
2022/05/12 00:30:36;;;;;;;4.28;3.97;;;19.90;99.90;;;-141.84;47.43;19204.19;5114055;28;20226;-62
2022/05/12 00:33:06;;;;;;;5.05;4.15;;;19.70;99.90;;;-141.84;46.16;19254.97;5113364;28;20781;-62
2022/05/12 00:35:41;;;;;;;4.50;4.10;;;19.80;99.90;;;-141.84;46.05;19275.31;5113393;28;20226;-63
2022/05/12 00:38:09;;;;;;;4.80;4.30;;;19.70;99.90;;;-141.84;46.35;19254.97;5113167;28;20432;-62
2022/05/12 00:40:39;;;;;;;4.10;3.70;;;19.70;99.90;;;-141.84;46.34;19240.75;5113799;28;20647;-63
2022/05/12 00:43:29;;;;;;;5.53;4.15;;;19.70;99.90;;;-141.84;45.75;19273.28;5113060;28;20745;-64
2022/05/12 00:45:58;;;;;;;4.78;3.58;;;19.70;99.90;;;-141.84;45.43;19291.56;5113606;28;20203;-64
2022/05/12 00:48:27;;;;;;;4.80;4.22;;;19.70;99.90;;;-141.84;45.41;19285.47;5112943;28;20356;-62
2022/05/12 00:50:55;;;;;;;4.15;3.78;;;19.60;99.90;;;-141.84;45.33;19281.41;5113689;28;20608;-61
2022/05/12 00:53:24;;;;;;;5.15;3.92;;;19.60;99.90;;;-141.84;45.49;19265.13;5112963;28;20247;-63
2022/05/12 00:55:53;;;;;;;4.53;3.55;;;19.60;99.90;;;-141.84;45.21;19313.91;5112998;28;20310;-61
2022/05/12 00:58:22;;;;;;;4.72;3.67;;;19.60;99.90;;;-141.84;45.59;19311.88;5113049;28;20291;-63
2022/05/12 01:00:50;;;;;;;5.13;3.17;;;19.50;99.90;;;-141.84;44.59;19354.56;5113738;28;20741;-63
2022/05/12 01:03:24;;;;;;;4.55;3.60;;;19.60;99.90;;;-141.84;44.95;19273.28;5112834;28;20789;-64
2022/05/12 01:05:53;;;;;;;3.67;3.38;;;19.60;99.90;;;-141.84;45.32;19317.97;5108670;28;20254;-63
2022/05/12 01:08:23;;;;;;;4.13;3.13;;;19.60;99.90;;;-141.84;45.03;19283.44;5112615;28;20226;-64
2022/05/12 01:10:58;;;;;;;3.55;3.25;;;19.60;99.90;;;-141.84;44.70;19303.75;5113275;28;20268;-63
2022/05/12 01:13:28;;;;;;;3.30;3.00;;;19.60;99.90;;;-141.84;44.97;19293.59;5112615;28;20322;-63
2022/05/12 01:15:59;;;;;;;3.65;3.10;;;19.60;99.90;;;-141.84;45.00;19285.47;5113036;28;20695;-63
2022/05/12 01:18:31;;;;;;;3.67;3.13;;;19.60;99.90;;;-141.84;44.35;19326.09;5112499;28;20242;-62
2022/05/12 01:21:00;;;;;;;3.40;3.10;;;19.60;99.90;;;-141.84;44.28;19336.25;5112731;28;20766;-63
2022/05/12 01:23:33;;;;;;;6.38;3.03;;;19.70;99.90;;;-141.84;44.52;19330.16;5112599;28;20238;-64
2022/05/12 01:26:05;;;;;;;3.22;2.97;;;19.70;99.90;;;-141.84;43.94;19366.75;5112597;28;20318;-62
2022/05/12 01:28:34;;;;;;;4.90;3.22;;;19.70;99.90;;;-141.84;44.59;19265.13;5112492;28;20710;-63
2022/05/12 01:31:03;;;;;;;4.68;2.90;;;19.70;99.90;;;-141.84;44.16;19303.75;5113320;28;20774;-62
2022/05/12 01:33:33;;;;;;;5.05;3.15;;;19.60;99.90;;;-141.84;43.96;19387.06;5112113;28;20284;-64
2022/05/12 01:36:01;;;;;;;3.70;2.97;;;19.70;99.90;;;-141.84;44.54;19330.16;5112303;28;20227;-62
2022/05/12 01:38:30;;;;;;;4.53;2.95;;;19.70;99.90;;;-141.84;44.00;19344.41;5111995;28;20309;-64
2022/05/12 01:40:58;;;;;;;4.00;2.97;;;19.60;99.90;;;-141.84;43.71;19344.41;5112694;28;20318;-63
2022/05/12 01:43:26;;;;;;;3.05;2.80;;;19.60;99.90;;;-141.84;43.83;19360.66;5111882;28;20751;-61
2022/05/12 01:45:54;;;;;;;3.90;2.70;;;19.60;99.90;;;-141.84;43.38;19350.50;5112822;28;20290;-62
2022/05/12 01:48:22;;;;;;;4.68;2.90;;;19.70;99.90;;;-141.84;43.54;19346.44;5112008;28;20235;-64
2022/05/12 01:50:52;;;;;;;4.03;2.97;;;19.70;99.90;;;-141.84;43.22;19389.09;5112300;28;20770;-62
2022/05/12 01:53:20;;;;;;;2.88;2.55;;;19.70;99.90;;;-141.84;43.85;19301.72;5111726;28;20233;-63
2022/05/12 01:55:49;;;;;;;3.85;2.70;;;19.60;99.90;;;-141.84;43.83;19336.25;5111986;28;20223;-63
2022/05/12 01:58:20;;;;;;;6.40;2.92;;;19.60;99.90;;;-141.84;43.72;19320.00;5111860;28;20204;-64
2022/05/12 02:00:48;;;;;;;3.85;2.65;;;19.50;99.90;;;-141.84;43.53;19380.97;5104418;28;20484;-62
2022/05/12 02:03:16;;;;;;;4.07;2.60;;;19.50;99.90;;;-141.84;43.30;19356.59;5091145;28;20223;-62
2022/05/12 02:05:46;;;;;;;3.97;2.92;;;19.50;99.90;;;-141.84;43.59;19330.16;5106867;28;20223;-63
2022/05/12 02:08:18;;;;;;;3.00;2.47;;;19.50;99.90;;;-141.84;43.41;19383.00;5111711;28;20232;-63
2022/05/12 02:10:53;;;;;;;3.42;2.70;;;19.50;99.90;;;-141.84;44.03;19279.38;5111615;28;20600;-64
2022/05/12 02:13:25;;;;;;;3.08;2.42;;;19.30;99.90;;;-141.84;43.40;19344.41;5091282;28;20275;-61
2022/05/12 02:15:56;;;;;;;3.15;2.53;;;19.40;99.90;;;-141.84;43.56;19332.19;5091751;28;20646;-63
2022/05/12 02:18:25;;;;;;;4.25;2.53;;;19.40;99.90;;;-141.84;43.06;19354.56;5090932;28;20234;-64
2022/05/12 02:20:54;;;;;;;3.30;2.65;;;19.40;99.90;;;-141.84;43.49;19309.84;5091607;28;20280;-63
2022/05/12 02:23:23;;;;;;;3.75;2.70;;;19.30;99.90;;;-141.84;43.54;19299.69;5090582;28;20315;-64
2022/05/12 02:25:52;;;;;;;3.80;2.40;;;19.30;99.90;;;-141.84;43.73;19311.88;5091009;28;20257;-63
2022/05/12 02:28:20;;;;;;;3.75;2.33;;;19.20;99.90;;;-141.84;43.42;19362.69;5090634;28;20730;-63
2022/05/12 02:30:48;;;;;;;5.43;2.40;;;19.20;99.90;;;-141.84;42.99;19354.56;5092119;28;20218;-63
2022/05/12 02:33:16;;;;;;;4.07;2.60;;;19.20;99.90;;;-141.84;43.35;19378.94;5090582;28;20223;-63
2022/05/12 02:35:44;;;;;;;3.45;2.33;;;19.20;99.90;;;-141.84;43.08;19336.25;5106428;28;20227;-63
2022/05/12 02:38:14;;;;;;;2.35;2.13;;;19.20;99.90;;;-141.84;43.64;19317.97;5111027;28;20311;-63
2022/05/12 02:40:42;;;;;;;3.40;2.35;;;19.20;99.90;;;-141.84;43.78;19299.69;5111153;28;20219;-64
2022/05/12 02:43:24;;;;;;;5.10;2.28;;;19.10;99.90;;;-141.84;43.66;19358.63;5111252;28;20203;-62
2022/05/12 02:45:54;;;;;;;4.20;3.00;;;19.10;99.90;;;-141.84;43.80;19348.47;5111412;28;20654;-62
2022/05/12 02:48:27;;;;;;;4.75;2.88;;;19.20;99.90;;;-141.84;44.85;19305.78;5110862;28;20309;-62
2022/05/12 02:50:56;;;;;;;4.80;3.53;;;19.30;99.90;;;-141.84;46.60;19246.84;5111431;28;20313;-63
2022/05/12 02:53:26;;;;;;;16.65;4.00;;;19.20;99.90;;;-141.84;49.97;19151.34;5110771;28;20227;-61
2022/05/12 02:55:59;;;;;;;5.97;4.10;;;19.10;99.90;;;-141.84;51.84;19098.50;5110666;28;20671;-63
2022/05/12 02:58:29;;;;;;;7.10;4.13;;;19.00;99.90;;;-141.84;52.96;19059.91;5110941;28;20261;-63
2022/05/12 03:00:58;;;;;;;6.50;4.00;;;18.90;99.90;;;-141.84;54.03;18996.91;5112080;28;20276;-62
2022/05/12 03:03:27;;;;;;;7.30;4.63;;;18.70;99.90;;;-141.84;55.40;18919.69;5110127;28;20678;-63
2022/05/12 03:05:56;;;;;;;7.28;4.43;;;18.60;99.90;;;-141.84;56.34;18897.34;5110665;28;20353;-61
2022/05/12 03:08:25;;;;;;;6.10;3.42;;;18.40;99.90;;;-141.84;57.72;18846.56;5110502;28;20219;-63
2022/05/12 03:10:53;;;;;;;7.18;4.20;;;18.20;99.90;;;-141.84;57.74;18850.63;5110960;28;20265;-63
2022/05/12 03:13:23;;;;;;;6.53;4.00;;;18.20;99.90;;;-141.84;58.66;18836.41;5110768;28;20515;-63
2022/05/12 03:15:52;;;;;;;5.93;4.07;;;18.00;99.90;;;-141.84;59.42;18785.59;5110944;28;20223;-62
2022/05/12 03:18:21;;;;;;;5.72;4.18;;;17.90;99.90;;;-141.84;59.67;18761.22;5110533;28;20778;-62
2022/05/12 03:20:49;;;;;;;5.60;3.67;;;17.80;99.90;;;-141.84;60.28;18781.53;5110921;28;20223;-62
2022/05/12 03:23:23;;;;;;;7.43;3.97;;;17.60;99.90;;;-141.84;59.88;18805.91;5112180;28;20224;-62
2022/05/12 03:25:53;;;;;;;6.22;3.67;;;17.50;99.90;;;-141.84;59.79;18740.91;5114656;28;20231;-62
2022/05/12 03:28:22;;;;;;;6.93;3.70;;;17.50;99.90;;;-141.84;59.62;18781.53;5115261;28;20206;-62
2022/05/12 03:30:51;;;;;;;7.13;3.90;;;17.50;99.90;;;-141.84;60.01;18785.59;5115224;28;20286;-61
2022/05/12 03:33:19;;;;;;;7.82;3.85;;;17.40;99.90;;;-141.84;59.88;18751.06;5114622;28;20223;-62
2022/05/12 03:35:49;;;;;;;9.88;4.00;;;17.40;99.90;;;-141.84;60.04;18744.97;5114489;28;20246;-62
2022/05/12 03:38:17;;;;;;;8.20;3.53;;;17.30;99.90;;;-141.84;60.13;18749.03;5114568;28;20313;-62
2022/05/12 03:40:45;;;;;;;7.68;3.85;;;17.30;99.90;;;-141.84;60.92;18749.03;5114791;28;20241;-62
2022/05/12 03:44:46;;;;;;;7.65;4.13;;;17.30;99.90;;;-141.84;61.16;18714.50;5114329;28;20213;-63
2022/05/12 03:46:03;;;;;;;6.43;3.80;;;17.20;99.90;;;-141.84;61.10;18722.63;5114701;28;20758;-62
2022/05/12 03:48:31;;;;;;;8.18;4.07;;;17.20;99.90;;;-141.84;61.48;18724.66;5114243;28;20633;-62
2022/05/12 03:50:59;;;;;;;5.90;3.95;;;17.20;99.90;;;-141.84;60.96;18777.47;5114637;28;20310;-62
2022/05/12 03:53:27;;;;;;;6.80;4.20;;;17.20;99.90;;;-141.84;60.98;18740.91;5114109;28;20227;-62
2022/05/12 03:55:56;;;;;;;6.53;3.75;;;17.20;99.90;;;-141.84;60.81;18751.06;5113976;28;20710;-62
2022/05/12 03:58:24;;;;;;;4.88;3.40;;;17.30;99.90;;;-141.84;60.96;18747.00;5114179;28;20203;-62
2022/05/12 04:00:53;;;;;;;5.97;3.67;;;17.30;99.90;;;-141.84;61.27;18712.47;5114708;28;20669;-61
2022/05/12 04:03:22;;;;;;;6.50;3.60;;;17.30;99.90;;;-141.84;60.72;18767.31;5113772;28;20778;-63
2022/05/12 04:05:51;;;;;;;5.75;3.70;;;17.40;99.90;;;-141.84;60.77;18708.41;5113998;28;20306;-62
2022/05/12 04:08:19;;;;;;;5.35;3.35;;;17.40;99.90;;;-141.84;61.64;18692.13;5113909;28;20301;-63
2022/05/12 04:10:48;;;;;;;7.22;3.42;;;17.40;99.90;;;-141.84;62.00;18712.47;5114098;28;20255;-62
2022/05/12 04:13:17;;;;;;;5.60;3.70;;;17.40;99.90;;;-141.84;62.25;18704.31;5114302;28;20234;-61
2022/05/12 04:15:45;;;;;;;5.45;3.40;;;17.40;99.90;;;-141.84;61.75;18716.53;5113649;28;20302;-63
2022/05/12 04:18:13;;;;;;;5.82;3.10;;;17.40;99.90;;;-141.84;61.74;18751.06;5112460;28;20306;-62
2022/05/12 04:20:44;;;;;;;6.35;3.47;;;17.50;99.90;;;-141.84;61.94;18716.53;5112459;28;20302;-62
2022/05/12 04:23:12;;;;;;;6.88;3.40;;;17.50;99.90;;;-141.84;61.35;18753.09;5112475;28;20310;-63
2022/05/12 04:25:41;;;;;;;6.55;3.65;;;17.60;99.90;;;-141.84;61.08;18753.09;5112194;28;20257;-62
2022/05/12 04:28:09;;;;;;;8.13;3.95;;;17.60;99.90;;;-141.84;61.07;18769.34;5112640;28;20261;-61
2022/05/12 04:30:38;;;;;;;5.13;3.60;;;17.60;99.90;;;-141.84;60.51;18773.41;5112839;28;20226;-62
2022/05/12 04:35:50;;;;;;;5.63;3.47;;;17.80;99.90;;;-141.84;61.41;18718.56;5067331;28;20317;-62
2022/05/12 04:38:18;;;;;;;4.35;2.83;;;17.70;99.90;;;-141.84;61.15;18747.00;5112273;28;20326;-62
2022/05/12 04:40:46;;;;;;;3.90;3.10;;;17.70;99.90;;;-141.84;61.59;18761.22;5111982;28;20231;-62
2022/05/12 04:43:14;;;;;;;6.15;3.25;;;17.70;99.90;;;-141.84;60.60;18777.47;5112384;28;20655;-62
2022/05/12 04:45:42;;;;;;;6.38;2.90;;;17.80;99.90;;;-141.84;58.92;18816.06;5112832;28;20222;-63
2022/05/12 04:48:10;;;;;;;7.55;3.08;;;17.80;99.90;;;-141.84;57.78;18836.41;5112017;28;20241;-62
2022/05/12 04:50:41;;;;;;;4.65;2.67;;;17.90;99.90;;;-141.84;57.08;18862.81;5111928;28;20306;-62
2022/05/12 04:53:11;;;;;;;6.78;2.83;;;18.00;99.90;;;-141.84;57.52;18858.75;5112080;28;20223;-62
2022/05/12 04:55:39;;;;;;;2.33;2.10;;;18.00;99.90;;;-141.84;57.38;18842.50;5111976;28;20276;-62
2022/05/12 04:58:07;;;;;;;4.22;2.15;;;17.90;99.90;;;-141.84;54.93;18903.44;5111878;28;20290;-63
2022/05/12 05:00:40;;;;;;;2.90;2.00;;;18.00;99.90;;;-141.84;54.31;18931.91;5111845;28;20609;-62
2022/05/12 05:03:10;;;;;;;3.45;1.92;;;18.10;99.90;;;-141.84;54.06;18964.41;5111947;28;20718;-61
2022/05/12 05:05:46;;;;;;;3.90;1.70;;;18.10;99.90;;;-141.84;51.74;19021.31;5111347;28;20601;-62
2022/05/12 05:08:19;;;;;;;2.10;1.70;;;18.30;99.90;;;-141.84;51.06;19055.84;5111611;28;20231;-62
2022/05/12 05:10:47;;;;;;;5.55;1.60;;;18.50;99.90;;;-141.84;50.78;19051.78;5111495;28;20250;-62
2022/05/12 05:13:18;;;;;;;3.67;1.60;;;18.60;99.90;;;-141.84;50.45;19094.44;5112072;28;20286;-62
2022/05/12 05:15:47;;;;;;;2.38;1.50;;;18.70;99.90;;;-141.84;50.45;19131.03;5076167;28;1024201;-62
2022/05/12 05:18:17;;;;;;;1.80;1.45;;;18.70;99.90;;;-141.84;51.45;19023.34;5112028;28;20230;-63
2022/05/12 05:20:46;;;;;;;4.10;1.50;;;18.70;99.90;;;-141.84;50.83;18986.75;5112399;28;20215;-61
2022/05/12 05:23:18;;;;;;;2.88;1.35;;;18.60;99.90;;;-141.84;51.54;18988.78;5111845;28;20235;-62
2022/05/12 05:25:45;;;;;;;1.70;1.25;;;18.40;99.90;;;-141.84;51.91;18976.59;5112432;28;20219;-52
2022/05/12 05:28:14;;;;;;;4.20;1.30;;;18.30;99.90;;;-141.84;52.02;18980.66;5111925;28;20663;-55
2022/05/12 05:30:42;;;;;;;4.18;1.42;;;18.10;99.90;;;-141.84;52.58;19005.03;5113249;28;20595;-54
2022/05/12 05:33:11;;;;;;;3.03;1.17;;;18.20;99.90;;;-141.84;50.99;19000.97;5112597;28;20306;-55
2022/05/12 05:35:39;;;;;;;4.20;1.60;;;18.30;99.90;;;-141.84;50.40;19051.78;5111984;28;20219;-53
2022/05/12 05:38:07;;;;;;;3.97;1.67;;;18.60;99.90;;;-141.84;50.23;19049.75;5111653;28;20306;-52
2022/05/12 05:40:36;;;;;;;1.90;1.33;;;18.80;99.90;;;-141.84;50.34;19104.59;5111647;28;20302;-54
2022/05/12 05:43:05;;;;;;;4.65;1.40;;;18.90;99.90;;;-141.84;49.19;19094.44;5112855;28;20226;-55
2022/05/12 05:45:34;;;;;;;3.03;1.30;;;19.00;99.90;;;-141.84;48.99;19112.75;5111268;28;20219;-53
2022/05/12 05:48:06;;;;;;;4.10;1.35;;;19.10;99.90;;;-141.84;47.86;19175.72;5111630;28;20234;-54
2022/05/12 05:53:26;;;;;;;6.30;1.45;;;19.20;99.90;;;-141.84;46.71;19232.63;5110997;28;20227;-58
2022/05/12 05:56:01;;;;;;;2.90;1.30;;;19.30;99.90;;;-141.84;46.24;19214.34;5111009;28;20314;-54
2022/05/12 05:58:30;;;;;;;4.05;1.25;;;19.20;99.90;;;-141.84;46.53;19208.25;5111216;28;20305;-55
2022/05/12 06:00:58;;;;;;;1.98;1.23;;;19.30;99.90;;;-141.84;45.58;19222.47;5112252;28;20294;-54
2022/05/12 06:03:27;;;;;;;1.55;1.23;;;19.30;99.90;;;-141.84;45.29;19236.69;5110395;28;20227;-55
2022/05/12 06:05:55;;;;;;;3.20;1.25;;;19.20;99.90;;;-141.84;45.52;19238.72;5108078;28;20258;-54
2022/05/12 06:08:24;;;;;;;2.90;1.10;;;19.20;99.90;;;-141.84;45.62;19220.44;5111118;28;20233;-54
2022/05/12 06:11:04;;;;;;;3.47;1.02;;;19.20;99.90;;;-141.84;45.66;19250.91;5111510;28;20325;-51
2022/05/12 06:13:34;;;;;;;1.95;1.20;;;19.30;99.90;;;-141.84;44.73;19275.31;5111861;28;20304;-55
2022/05/12 06:16:04;;;;;;;2.28;1.00;;;19.50;99.90;;;-141.84;45.18;19285.47;5111131;28;20203;-56
2022/05/12 06:18:34;;;;;;;3.15;1.17;;;19.50;99.90;;;-141.84;44.37;19320.00;5111584;28;20218;-54
2022/05/12 06:21:04;;;;;;;3.53;1.20;;;19.50;99.90;;;-141.84;43.95;19309.84;5111401;28;20250;-56
2022/05/12 06:23:32;;;;;;;3.08;1.00;;;19.50;99.90;;;-141.84;43.88;19320.00;5111195;28;20253;-58
2022/05/12 06:26:02;;;;;;;2.72;1.23;;;19.50;99.90;;;-141.84;43.25;19332.19;5111269;28;20223;-57
2022/05/12 06:28:31;;;;;;;1.90;1.10;;;19.50;99.90;;;-141.84;43.30;19338.28;5111050;28;20219;-55
2022/05/12 06:30:58;;;;;;;1.80;0.90;;;19.50;99.90;;;-141.84;41.62;19425.69;5111697;28;20282;-56
2022/05/12 06:33:27;;;;;;;2.08;1.13;;;19.70;99.90;;;-141.84;42.85;19356.59;5110196;28;20298;-55
2022/05/12 06:35:58;;;;;;;2.63;1.20;;;19.50;99.90;;;-141.84;44.24;19279.38;5107607;28;20247;-54
2022/05/12 06:38:26;;;;;;;3.60;1.17;;;19.40;99.90;;;-141.84;45.84;19224.50;5110653;28;20258;-55
2022/05/12 06:40:55;;;;;;;4.88;1.60;;;19.20;99.90;;;-141.84;47.15;19194.03;5110839;28;20233;-57
2022/05/12 06:43:24;;;;;;;4.65;1.60;;;19.10;99.90;;;-141.84;47.56;19183.84;5108970;28;20222;-52
2022/05/12 06:45:54;;;;;;;3.45;1.35;;;19.00;99.90;;;-141.84;47.41;19137.13;5110644;28;20199;-55
2022/05/12 06:48:22;;;;;;;2.45;1.48;;;18.90;99.90;;;-141.84;46.83;19179.78;5110135;28;20714;-54
2022/05/12 06:50:51;;;;;;;4.00;1.50;;;18.80;99.90;;;-141.84;47.03;19135.09;5110563;28;20313;-50
2022/05/12 06:53:19;;;;;;;3.38;1.45;;;18.70;99.90;;;-141.84;46.68;19169.63;5110033;28;20234;-52
2022/05/12 06:55:47;;;;;;;3.05;1.50;;;18.80;99.90;;;-141.84;46.51;19226.53;5110710;28;20310;-52
2022/05/12 06:58:17;;;;;;;1.65;1.08;;;18.80;99.90;;;-141.84;44.43;19214.34;5109807;28;20209;-54
2022/05/12 07:00:47;;;;;;;4.93;1.10;;;18.80;99.90;;;-141.84;43.97;19238.72;5110794;28;20203;-57
2022/05/12 07:03:16;;;;;;;3.15;0.80;;;18.60;99.90;;;-141.84;43.74;19218.41;5110443;28;20784;-54
2022/05/12 07:05:44;;;;;;;1.55;0.80;;;18.30;99.90;;;-141.84;43.76;19175.72;5105722;28;20248;-53
2022/05/12 07:08:13;;;;;;;2.85;0.98;;;18.20;99.90;;;-141.84;44.55;19220.44;5110155;28;20288;-55
2022/05/12 07:10:41;;;;;;;2.35;0.90;;;18.10;99.90;;;-141.84;43.60;19222.47;5110811;28;20247;-55
2022/05/12 07:13:09;;;;;;;5.82;1.00;;;18.10;99.90;;;-141.84;43.73;19210.28;5110627;28;20221;-57
2022/05/12 07:15:37;;;;;;;1.20;0.80;;;18.10;99.90;;;-141.84;43.40;19248.88;5110821;28;20315;-53
2022/05/12 07:18:07;;;;;;;4.60;0.93;;;18.10;99.90;;;-141.84;43.25;19212.31;5110546;28;20790;-55
2022/05/12 07:28:52;;;;;;;2.20;0.75;;;18.20;99.90;;;-141.84;42.92;19261.06;5110126;28;20233;-56
2022/05/12 07:31:20;;;;;;;2.10;0.70;;;18.10;99.90;;;-141.84;43.01;19265.13;5110341;28;20215;-52
2022/05/12 07:33:50;;;;;;;1.20;0.73;;;18.20;99.90;;;-141.84;42.63;19277.34;5110548;28;20592;-53
2022/05/12 07:36:23;;;;;;;2.15;0.85;;;18.20;99.90;;;-141.84;42.71;19257.00;5110056;28;20223;-58
2022/05/12 07:38:51;;;;;;;1.23;0.60;;;18.30;99.90;;;-141.84;42.05;19309.84;5109949;28;20219;-57
2022/05/12 07:41:20;;;;;;;1.92;0.93;;;18.30;99.90;;;-141.84;42.15;19287.50;5110201;28;20318;-52
2022/05/12 07:43:51;;;;;;;2.58;0.90;;;18.30;99.90;;;-141.84;42.25;19277.34;5110533;28;20302;-55
2022/05/12 07:46:23;;;;;;;1.30;0.70;;;18.20;99.90;;;-141.84;42.87;19234.66;5110096;28;20184;-54
2022/05/12 07:48:53;;;;;;;3.55;0.88;;;18.00;99.90;;;-141.84;42.78;19261.06;5110113;28;20207;-55
2022/05/12 07:51:22;;;;;;;2.88;0.70;;;18.00;99.90;;;-141.84;42.66;19234.66;5110535;28;20227;-55
2022/05/12 07:53:51;;;;;;;1.95;1.67;;;17.90;99.90;;;-141.84;43.18;19265.13;5109893;28;20231;-55
2022/05/12 07:56:22;;;;;;;3.15;0.98;;;18.00;99.90;;;-141.84;42.81;19250.91;5110028;28;20294;-52
2022/05/12 07:58:50;;;;;;;2.17;0.77;;;18.10;99.90;;;-141.84;42.48;19265.13;5110401;28;20385;-52
2022/05/12 08:01:20;;;;;;;1.45;0.80;;;18.10;99.90;;;-141.84;41.85;19289.53;5110208;28;20286;-53
2022/05/12 08:03:49;;;;;;;1.52;0.80;;;18.10;99.90;;;-141.84;42.56;19263.09;5107003;28;20647;-52
2022/05/12 08:06:20;;;;;;;1.50;0.70;;;18.00;99.90;;;-141.84;42.45;19269.22;5109453;28;20227;-50
2022/05/12 08:08:51;;;;;;;2.47;0.82;;;18.00;99.90;;;-141.84;42.56;19259.03;5110150;28;20245;-53
2022/05/12 08:11:20;;;;;;;1.90;0.70;;;18.00;99.90;;;-141.84;42.66;19236.69;5113469;28;20730;-55
2022/05/12 08:13:48;;;;;;;4.38;0.70;;;18.00;99.90;;;-141.84;42.82;19277.34;5114015;28;20337;-57
2022/05/12 08:16:18;;;;;;;2.25;0.90;;;18.10;99.90;;;-141.84;42.74;19275.31;5113199;28;20246;-54
2022/05/12 08:18:49;;;;;;;3.75;1.08;;;18.20;99.90;;;-141.84;42.27;19267.16;5114154;28;20204;-54
2022/05/12 08:21:23;;;;;;;0.95;0.70;;;18.20;99.90;;;-141.84;41.34;19293.59;5113478;28;20493;-54
2022/05/12 08:23:52;;;;;;;1.15;0.60;;;18.10;99.90;;;-141.84;41.52;19295.63;5113553;28;20226;-54
2022/05/12 08:26:21;;;;;;;1.63;0.73;;;18.10;99.90;;;-141.84;41.63;19293.59;5113134;28;20771;-54
2022/05/12 08:28:50;;;;;;;1.92;0.93;;;18.10;99.90;;;-141.84;41.80;19340.31;5113583;28;20265;-54
2022/05/12 08:31:20;;;;;;;1.50;0.95;;;18.20;99.90;;;-141.84;41.24;19328.13;5113061;28;20545;-53
2022/05/12 08:33:49;;;;;;;3.22;0.90;;;18.20;99.90;;;-141.84;41.70;19336.25;5113619;28;20246;-55
2022/05/12 08:36:18;;;;;;;1.88;0.80;;;18.20;99.90;;;-141.84;41.44;19326.09;5112771;28;20227;-54
2022/05/12 08:38:46;;;;;;;1.35;0.80;;;18.20;99.90;;;-141.84;41.81;19277.34;5113220;28;20235;-53
2022/05/12 08:41:27;;;;;;;1.15;0.85;;;18.20;99.90;;;-141.84;41.71;19317.97;5112657;28;20638;-51
2022/05/12 08:44:00;;;;;;;4.80;1.17;;;18.30;99.90;;;-141.84;42.35;19285.47;5113225;28;20227;-51
2022/05/12 08:46:41;;;;;;;2.28;0.70;;;18.20;99.90;;;-141.84;41.94;19305.78;5112458;28;20219;-54
2022/05/12 08:49:22;;;;;;;1.92;0.82;;;18.30;99.90;;;-141.84;42.18;19322.03;5113003;28;20219;-51
2022/05/12 08:52:14;;;;;;;3.33;0.82;;;18.50;99.90;;;-141.84;41.37;19313.91;5112580;28;20267;-54
2022/05/12 08:54:51;;;;;;;3.70;0.73;;;18.60;99.90;;;-141.84;40.76;19374.88;5112935;28;20227;-55
2022/05/12 08:57:31;;;;;;;2.47;0.80;;;18.60;99.90;;;-141.84;40.65;19385.03;5112153;28;20276;-53
2022/05/12 09:00:03;;;;;;;1.73;0.70;;;18.60;99.90;;;-141.84;40.75;19336.25;5112534;28;20223;-53
2022/05/12 09:02:50;;;;;;;1.00;0.70;;;18.50;99.90;;;-141.84;40.82;19356.59;5112278;28;20254;-55
2022/05/12 09:05:24;;;;;;;1.58;0.70;;;18.60;99.90;;;-141.84;40.50;19360.66;5108125;28;20310;-50
2022/05/12 09:08:04;;;;;;;2.30;1.00;;;18.60;99.90;;;-141.84;40.29;19356.59;5112631;28;20277;-52
2022/05/12 09:10:53;;;;;;;1.65;0.77;;;18.60;99.90;;;-141.84;40.02;19378.94;5112327;28;20306;-56
2022/05/12 09:13:26;;;;;;;2.33;0.90;;;18.70;99.90;;;-141.84;40.37;19393.16;5112348;28;20333;-55
2022/05/12 09:16:09;;;;;;;1.45;0.60;;;18.60;99.90;;;-141.84;39.87;19395.19;5112388;28;20218;-54
2022/05/12 09:18:39;;;;;;;3.40;0.90;;;18.60;99.90;;;-141.84;39.73;19437.88;5112626;28;20276;-55
2022/05/12 09:21:12;;;;;;;4.30;0.82;;;18.70;99.90;;;-141.84;39.01;19464.28;5110806;28;20634;-53
2022/05/12 09:23:42;;;;;;;1.92;0.82;;;18.80;99.90;;;-141.84;39.51;19441.94;5112176;28;20247;-54
2022/05/12 09:26:36;;;;;;;2.38;0.75;;;18.80;99.90;;;-141.84;39.64;19446.00;5111606;28;20223;-54
2022/05/12 09:29:18;;;;;;;0.88;0.70;;;18.80;99.90;;;-141.84;39.90;19407.38;5112177;28;20327;-56
2022/05/12 09:31:51;;;;;;;1.65;0.90;;;18.80;99.90;;;-141.84;39.18;19454.13;5111878;28;20281;-55
2022/05/12 09:34:33;;;;;;;2.15;1.00;;;18.90;99.90;;;-141.84;39.59;19427.72;5112040;28;20215;-52
2022/05/12 09:37:20;;;;;;;2.38;0.73;;;18.90;99.90;;;-141.84;39.42;19464.28;5112445;28;20186;-53
2022/05/12 09:39:52;;;;;;;1.95;0.60;;;19.00;99.90;;;-141.84;38.56;19521.19;5111940;28;20352;-54
2022/05/12 09:42:42;;;;;;;1.63;0.70;;;19.20;99.90;;;-141.84;38.69;19498.84;5111299;28;20310;-54
2022/05/12 09:45:28;;;;;;;1.10;0.70;;;19.20;99.90;;;-141.84;38.75;19462.25;5111586;28;20284;-52
2022/05/12 09:48:24;;;;;;;2.22;0.80;;;19.20;99.90;;;-141.84;38.53;19488.69;5111595;28;20294;-49
2022/05/12 09:50:53;;;;;;;4.60;1.20;;;19.30;99.90;;;-141.84;38.70;19492.75;5111171;28;20703;-52
2022/05/12 09:53:29;;;;;;;1.90;0.93;;;19.40;99.90;;;-141.84;37.74;19559.81;5111817;28;20227;-49
2022/05/12 09:56:05;;;;;;;1.58;0.80;;;19.50;99.90;;;-141.84;37.66;19549.63;5110914;28;20713;-53
2022/05/12 09:58:38;;;;;;;3.78;0.80;;;19.50;99.90;;;-141.84;37.30;19598.41;5111016;28;20223;-54
2022/05/12 10:01:22;;;;;;;2.15;1.00;;;19.60;99.90;;;-141.84;37.02;19592.31;5111266;28;20188;-53
2022/05/12 10:09:52;;;;;;;1.23;0.85;;;19.90;99.90;;;-141.84;37.29;19643.13;5090849;28;20215;-54
2022/05/12 10:12:26;;;;;;;2.85;0.98;;;20.00;99.90;;;-141.84;37.07;19673.59;5090451;28;20642;-56
2022/05/12 10:15:00;;;;;;;2.85;0.93;;;20.00;99.90;;;-141.84;36.07;19639.06;5091003;28;20231;-53
2022/05/12 10:17:36;;;;;;;1.08;0.80;;;19.80;99.90;;;-141.84;35.48;19667.50;5090427;28;20247;-53
2022/05/12 10:20:10;;;;;;;2.60;1.00;;;19.80;99.90;;;-141.84;35.47;19689.88;5090139;28;20302;-54
2022/05/12 10:22:45;;;;;;;1.77;0.90;;;19.90;99.90;;;-141.84;35.14;19720.34;5090301;28;20312;-54
2022/05/12 10:25:27;;;;;;;1.67;0.70;;;20.00;99.90;;;-141.84;34.98;19785.38;5091116;28;20268;-59
2022/05/12 10:28:12;;;;;;;1.77;0.77;;;20.20;99.90;;;-141.84;35.29;19779.28;5107646;28;20706;-59
2022/05/12 10:30:48;;;;;;;2.15;0.90;;;20.40;99.90;;;-141.84;34.05;19805.72;5110850;28;20239;-59
2022/05/12 10:33:40;;;;;;;2.35;1.20;;;20.50;99.90;;;-141.84;33.69;19805.72;5110191;28;20237;-59
2022/05/12 10:36:29;;;;;;;2.15;1.02;;;20.60;99.90;;;-141.84;34.87;19803.69;5110277;28;20301;-55
2022/05/12 10:39:12;;;;;;;1.67;0.63;;;20.50;99.90;;;-141.84;35.26;19740.69;5109965;28;20306;-57
2022/05/12 10:41:54;;;;;;;1.90;1.00;;;20.40;99.90;;;-141.84;35.71;19718.31;5109904;28;20212;-55